Flight Track Log - Related Links

Times and Time Zones

All times are in EDT time to prevent confusion due to time zone crossing. See the EJA646 flight status page for this flight to view local times or setup timezone preferences in your user account.

Time Position Orientation Groundspeed Altitude Reporting Facility
EDT Latitude Longitude Course Direction KTS MPH feet Rate Location/Type
Sun 05:39:19 PM 33.7500 -78.8261 261° West 264 304 7,300  Level Jacksonville Center
Sun 05:40:19 PM 33.7486 -78.9086 269° West 278 320 9,000 2,050 Climbing Jacksonville Center
Sun 05:41:19 PM 33.7264 -79.0022 254° West 283 326 11,400 2,200 Climbing Jacksonville Center
Sun 05:42:19 PM 33.7128 -79.1025 261° West 294 338 13,400 1,250 Climbing Jacksonville Center
Sun 05:43:00 PM 33.8167 -79.2178 270° West  Level FlightAware Approximate
Sun 05:43:19 PM 33.7222 -79.2094 276° West 312 359 13,900  Level Jacksonville Center
Sun 05:44:19 PM 33.7294 -79.3167 275° West 319 367 14,000 50 Climbing Jacksonville Center
Sun 05:45:19 PM 33.7383 -79.4161 276° West 314 361 14,000  Level Jacksonville Center
Sun 05:46:19 PM 33.7517 -79.5206 279° West 303 349 14,000  Level Jacksonville Center
Sun 05:47:19 PM 33.7564 -79.6178 273° West 303 349 14,000  Level Jacksonville Center
Sun 05:48:19 PM 33.7650 -79.7122 276° West 298 343 14,000  Level Jacksonville Center
Sun 05:49:19 PM 33.7717 -79.8094 275° West 292 336 14,000  Level Jacksonville Center
Sun 05:50:19 PM 33.7803 -79.9067 276° West 292 336 14,000  Level Jacksonville Center
Sun 05:51:19 PM 33.7889 -80.0064 276° West 292 336 14,000  Level Jacksonville Center
Sun 05:52:19 PM 33.7931 -80.1036 273° West 292 336 14,000 -50 Level Jacksonville Center
Sun 05:53:19 PM 33.7994 -80.2058 274° West 292 336 13,900 -50 Descending Jacksonville Center
Sun 05:54:19 PM 33.7869 -80.3011 261° West 292 336 13,900  Level Jacksonville Center
Sun 05:55:19 PM 33.7742 -80.4017 261° West 297 342 13,900  Level Jacksonville Center
Sun 05:56:19 PM 33.7636 -80.4992 263° West 297 342 13,900  Level Jacksonville Center
Sun 05:57:19 PM 33.7486 -80.5919 259° West 292 336 13,900  Level Jacksonville Center
Sun 05:58:19 PM 33.7400 -80.6872 264° West 292 336 13,900  Level Jacksonville Center
Sun 05:59:19 PM 33.7269 -80.7800 260° West 292 336 13,900  Level Jacksonville Center
Sun 06:00:19 PM 33.7139 -80.8775 261° West 292 336 13,900  Level Jacksonville Center
Sun 06:01:19 PM 33.7008 -80.9753 261° West 292 336 13,900  Level Jacksonville Center
Sun 06:02:19 PM 33.6878 -81.0778 261° West 298 343 13,900  Level Jacksonville Center
Sun 06:03:20 PM 33.6744 -81.1806 261° West 304 350 13,900  Level Jacksonville Center
Sun 06:05:00 PM 33.6500 -81.3300 270° West  Level FlightAware Approximate
Sun 06:12:00 PM 33.4021 -81.8799 234° Southwest  Level FlightAware Approximate
Sun 06:13:00 PM 33.3667 -81.9500 239° Southwest  Level FlightAware Approximate
Sun 06:14:00 PM 33.3699 -81.9645 239° Southwest  Level Estimated
Sun 06:15:00 PM 33.3699 -81.9645 239° Southwest  Level Estimated
Sun 06:16:00 PM 33.3699 -81.9645 239° Southwest  Level Estimated
Sun 06:17:00 PM 33.3699 -81.9645 239° Southwest  Level Estimated
Sun 06:18:00 PM 33.3699 -81.9645 239° Southwest  Level Estimated
Sun 06:19:00 PM 33.3699 -81.9645 239° Southwest  Level Estimated
Sun 06:20:00 PM 33.3699 -81.9645 239° Southwest  Level Estimated

Login

Don't have an account? Register now (free) for customized features, flight alerts, and more!